createdAt,value
2018-08-12T00:00:26.963Z,14.15
2018-08-12T00:03:30.731Z,14.11
2018-08-12T00:06:34.453Z,14.14
2018-08-12T00:09:38.247Z,14.11
2018-08-12T00:12:42.758Z,14.14
2018-08-12T00:15:46.498Z,14.12
2018-08-12T00:18:50.336Z,14.11
2018-08-12T00:21:54.007Z,14.07
2018-08-12T00:24:57.971Z,14.06
2018-08-12T00:28:01.647Z,14.05
2018-08-12T00:31:05.462Z,14.09
2018-08-12T00:34:09.309Z,14.05
2018-08-12T00:37:12.986Z,14.00
2018-08-12T00:40:17.583Z,13.99
2018-08-12T00:43:21.238Z,13.97
2018-08-12T00:46:24.871Z,13.98
2018-08-12T00:49:28.641Z,13.92
2018-08-12T00:52:33.034Z,13.93
2018-08-12T00:55:36.643Z,13.96
2018-08-12T00:58:40.262Z,13.99
2018-08-12T01:01:43.862Z,13.90
2018-08-12T01:04:47.537Z,13.90
2018-08-12T01:07:51.598Z,13.85
2018-08-12T01:10:55.228Z,13.84
2018-08-12T01:13:59.063Z,13.92
2018-08-12T01:17:02.693Z,13.90
2018-08-12T01:20:07.603Z,13.85
2018-08-12T01:23:11.258Z,13.85
2018-08-12T01:26:15.038Z,13.89
2018-08-12T01:29:18.747Z,13.79
2018-08-12T01:32:22.547Z,13.71
2018-08-12T01:35:26.228Z,13.68
2018-08-12T01:38:29.913Z,13.63
2018-08-12T01:41:33.536Z,13.61
2018-08-12T01:44:37.153Z,13.52
2018-08-12T01:47:40.927Z,13.46
2018-08-12T01:50:44.677Z,13.47
2018-08-12T01:53:48.369Z,13.40
2018-08-12T01:56:52.008Z,13.37
2018-08-12T01:59:55.658Z,13.35
2018-08-12T02:02:59.331Z,13.35
2018-08-12T02:06:03.014Z,13.30
2018-08-12T02:09:08.380Z,13.27
2018-08-12T02:12:12.063Z,13.30
2018-08-12T02:15:15.802Z,13.23
2018-08-12T02:18:19.446Z,13.21
2018-08-12T02:21:23.096Z,13.20
2018-08-12T02:24:26.997Z,13.15
2018-08-12T02:27:30.622Z,13.20
2018-08-12T02:30:34.231Z,13.15
2018-08-12T02:33:37.827Z,13.08
2018-08-12T02:36:41.374Z,13.06
2018-08-12T02:39:45.033Z,13.06
2018-08-12T02:42:48.712Z,13.04
2018-08-12T02:45:52.318Z,13.00
2018-08-12T02:48:56.032Z,12.97
2018-08-12T02:51:59.710Z,13.00
2018-08-12T02:55:03.477Z,12.93
2018-08-12T02:58:07.107Z,12.93
2018-08-12T03:01:10.889Z,12.88
2018-08-12T03:04:14.491Z,12.90
2018-08-12T03:07:18.077Z,12.84
2018-08-12T03:10:21.708Z,12.78
2018-08-12T03:13:25.483Z,12.75
2018-08-12T03:16:29.105Z,12.74
2018-08-12T03:19:32.759Z,12.70
2018-08-12T03:22:36.701Z,12.67
2018-08-12T03:25:40.440Z,12.58
2018-08-12T03:28:44.040Z,12.53
2018-08-12T03:31:47.607Z,12.52
2018-08-12T03:34:51.233Z,12.51
2018-08-12T03:37:54.888Z,12.48
2018-08-12T03:40:58.695Z,12.53
2018-08-12T03:44:02.299Z,12.48
2018-08-12T03:47:06.073Z,12.47
2018-08-12T03:50:10.916Z,12.47
2018-08-12T03:53:14.624Z,12.46
2018-08-12T03:56:18.300Z,12.50
2018-08-12T03:59:21.935Z,12.38
2018-08-12T04:02:25.582Z,12.42
2018-08-12T04:05:29.155Z,12.41
2018-08-12T04:08:32.970Z,12.51
2018-08-12T04:11:36.681Z,12.58
2018-08-12T04:14:40.547Z,12.62
2018-08-12T04:17:44.176Z,12.69
2018-08-12T04:20:47.739Z,12.76
2018-08-12T04:23:51.615Z,12.93
2018-08-12T04:26:55.245Z,13.11
2018-08-12T04:29:59.138Z,13.23
2018-08-12T04:33:02.707Z,13.27
2018-08-12T04:36:06.419Z,13.50
2018-08-12T04:39:16.699Z,13.84
2018-08-12T04:42:20.385Z,14.17
2018-08-12T04:45:23.983Z,14.69
2018-08-12T04:48:27.725Z,15.29
2018-08-12T04:51:31.513Z,15.95
2018-08-12T04:54:35.116Z,16.71
2018-08-12T04:57:38.924Z,16.96
2018-08-12T05:00:42.678Z,17.17
2018-08-12T05:03:46.379Z,17.48
2018-08-12T05:06:50.189Z,17.34
2018-08-12T05:09:53.748Z,16.95
2018-08-12T05:12:57.533Z,16.89
2018-08-12T05:16:01.136Z,16.86
2018-08-12T05:19:04.879Z,17.17
2018-08-12T05:22:08.594Z,17.97
2018-08-12T05:25:12.318Z,18.13
2018-08-12T05:28:16.096Z,17.97
2018-08-12T05:31:19.716Z,18.10
2018-08-12T05:34:23.375Z,17.97
2018-08-12T05:37:27.243Z,18.52
2018-08-12T05:40:31.019Z,18.44
2018-08-12T05:43:34.715Z,19.39
2018-08-12T05:46:38.364Z,20.11
2018-08-12T05:49:42.055Z,19.29
2018-08-12T05:52:45.709Z,19.85
2018-08-12T05:55:50.265Z,20.04
2018-08-12T05:58:53.874Z,19.33
2018-08-12T06:01:57.452Z,19.00
2018-08-12T06:05:01.141Z,18.51
2018-08-12T06:08:04.771Z,18.73
2018-08-12T06:11:08.435Z,18.58
2018-08-12T06:14:12.166Z,18.76
2018-08-12T06:17:15.932Z,18.96
2018-08-12T06:20:19.605Z,19.01
2018-08-12T06:23:23.339Z,19.26
2018-08-12T06:26:27.185Z,19.31
2018-08-12T06:29:30.795Z,19.72
2018-08-12T06:32:34.580Z,20.10
2018-08-12T06:35:38.353Z,20.41
2018-08-12T06:38:42.085Z,20.45
2018-08-12T06:41:45.690Z,19.42
2018-08-12T06:44:49.295Z,19.92
2018-08-12T06:47:52.967Z,18.88
2018-08-12T06:50:56.611Z,18.68
2018-08-12T06:54:00.331Z,18.13
2018-08-12T06:57:04.076Z,18.09
2018-08-12T07:00:09.541Z,18.06
2018-08-12T07:03:13.171Z,17.93
2018-08-12T07:06:16.877Z,17.28
2018-08-12T07:09:20.648Z,17.19
2018-08-12T07:12:24.308Z,17.03
2018-08-12T07:15:28.021Z,17.22
2018-08-12T07:18:31.795Z,17.32
2018-08-12T07:21:35.382Z,17.68
2018-08-12T07:24:39.356Z,18.21
2018-08-12T07:27:43.641Z,18.18
2018-08-12T07:30:47.237Z,18.67
2018-08-12T07:33:50.896Z,19.20
2018-08-12T07:36:54.501Z,18.66
2018-08-12T07:39:58.179Z,19.01
2018-08-12T07:43:01.841Z,19.50
2018-08-12T07:46:05.593Z,19.84
2018-08-12T07:49:09.250Z,19.57
2018-08-12T07:55:11.223Z,19.30
2018-08-12T07:58:14.786Z,19.69
2018-08-12T08:01:18.521Z,19.14
2018-08-12T08:04:22.131Z,19.21
2018-08-12T08:07:25.768Z,19.23
2018-08-12T08:10:29.576Z,19.17
2018-08-12T08:13:33.308Z,19.51
2018-08-12T08:16:36.941Z,20.01
2018-08-12T08:19:40.732Z,20.07
2018-08-12T08:22:44.787Z,20.30
2018-08-12T08:25:48.672Z,20.81
2018-08-12T08:28:52.431Z,20.41
2018-08-12T08:31:56.400Z,20.57
2018-08-12T08:34:59.841Z,20.58
2018-08-12T08:38:03.726Z,21.20
2018-08-12T08:41:07.418Z,21.17
2018-08-12T08:44:11.049Z,20.93
2018-08-12T08:47:14.734Z,21.21
2018-08-12T08:50:19.662Z,21.72
2018-08-12T08:53:23.301Z,21.90
2018-08-12T08:56:26.943Z,22.20
2018-08-12T08:59:30.694Z,22.28
2018-08-12T09:02:34.384Z,22.58
2018-08-12T09:05:38.111Z,22.28
2018-08-12T09:08:42.187Z,22.32
2018-08-12T09:11:45.728Z,21.42
2018-08-12T09:14:49.348Z,21.93
2018-08-12T09:17:53.011Z,22.76
2018-08-12T09:20:56.808Z,22.92
2018-08-12T09:24:00.982Z,22.29
2018-08-12T09:27:04.690Z,22.40
2018-08-12T09:30:10.809Z,22.47
2018-08-12T09:33:14.689Z,23.13
2018-08-12T09:36:18.491Z,23.61
2018-08-12T09:39:22.212Z,22.95
2018-08-12T09:42:26.083Z,22.67
2018-08-12T09:45:29.723Z,23.10
2018-08-12T09:48:33.388Z,23.51
2018-08-12T09:51:37.208Z,23.16
2018-08-12T09:54:40.788Z,23.57
2018-08-12T09:57:44.744Z,23.44
2018-08-12T10:00:48.563Z,23.15
2018-08-12T10:03:52.894Z,23.47
2018-08-12T10:06:56.577Z,23.67
2018-08-12T10:10:00.348Z,22.95
2018-08-12T10:13:04.462Z,23.16
2018-08-12T10:16:08.345Z,23.41
2018-08-12T10:19:12.129Z,23.27
2018-08-12T10:22:15.990Z,23.57
2018-08-12T10:25:19.933Z,23.65
2018-08-12T10:28:23.647Z,23.50
2018-08-12T10:31:27.589Z,23.76
2018-08-12T10:34:31.398Z,23.89
2018-08-12T10:37:35.245Z,23.98
2018-08-12T10:40:39.146Z,23.74
2018-08-12T10:43:42.780Z,24.02
2018-08-12T10:46:46.501Z,23.75
2018-08-12T10:49:50.239Z,23.79
2018-08-12T10:52:54.024Z,23.95
2018-08-12T10:55:58.002Z,24.08
2018-08-12T10:59:01.817Z,24.56
2018-08-12T11:02:05.639Z,24.60
2018-08-12T11:05:09.430Z,25.10
2018-08-12T11:08:13.315Z,25.17
2018-08-12T11:11:17.116Z,25.48
2018-08-12T11:14:20.872Z,25.51
2018-08-12T11:17:24.784Z,25.86
2018-08-12T11:20:28.580Z,25.72
2018-08-12T11:23:32.433Z,26.07
2018-08-12T11:26:36.554Z,25.77
2018-08-12T11:29:40.290Z,25.23
2018-08-12T11:32:44.340Z,25.32
2018-08-12T11:35:48.055Z,25.60
2018-08-12T11:38:51.723Z,25.67
2018-08-12T11:41:55.604Z,25.52
2018-08-12T11:44:59.308Z,24.61
2018-08-12T11:48:03.181Z,25.10
2018-08-12T11:51:07.080Z,25.05
2018-08-12T11:54:10.887Z,25.02
2018-08-12T11:57:14.695Z,25.46
2018-08-12T12:00:20.521Z,25.81
2018-08-12T12:03:24.278Z,25.22
2018-08-12T12:06:28.083Z,25.75
2018-08-12T12:09:31.804Z,26.18
2018-08-12T12:12:35.421Z,25.76
2018-08-12T12:15:39.140Z,26.32
2018-08-12T12:18:42.793Z,26.97
2018-08-12T12:21:46.595Z,27.07
2018-08-12T12:24:50.481Z,26.52
2018-08-12T12:27:54.205Z,25.97
2018-08-12T12:30:58.113Z,25.80
2018-08-12T12:34:01.915Z,25.73
2018-08-12T12:37:05.638Z,25.94
2018-08-12T12:40:11.262Z,26.18
2018-08-12T12:43:14.910Z,26.45
2018-08-12T12:46:18.619Z,26.62
2018-08-12T12:49:22.449Z,26.46
2018-08-12T12:52:26.235Z,25.94
2018-08-12T12:55:29.998Z,26.66
2018-08-12T12:58:33.798Z,26.33
2018-08-12T13:01:37.578Z,26.19
2018-08-12T13:04:41.275Z,25.80
2018-08-12T13:07:46.055Z,25.64
2018-08-12T13:10:49.748Z,26.13
2018-08-12T13:13:53.461Z,26.17
2018-08-12T13:16:57.306Z,26.30
2018-08-12T13:20:01.043Z,26.30
2018-08-12T13:23:05.036Z,26.69
2018-08-12T13:26:08.971Z,26.91
2018-08-12T13:29:12.761Z,26.94
2018-08-12T13:32:16.477Z,27.01
2018-08-12T13:35:20.248Z,27.10
2018-08-12T13:38:24.054Z,26.83
2018-08-12T13:41:27.708Z,27.14
2018-08-12T13:44:31.423Z,27.61
2018-08-12T13:47:35.222Z,27.15
2018-08-12T13:50:38.977Z,26.95
2018-08-12T13:53:42.733Z,27.02
2018-08-12T13:56:46.491Z,27.12
2018-08-12T13:59:50.172Z,27.11
2018-08-12T14:02:53.999Z,27.32
2018-08-12T14:05:57.626Z,27.44
2018-08-12T14:09:01.368Z,27.32
2018-08-12T14:12:05.201Z,27.12
2018-08-12T14:15:12.482Z,27.11
2018-08-12T14:18:16.237Z,27.10
2018-08-12T14:21:20.095Z,26.34
2018-08-12T14:24:24.038Z,26.94
2018-08-12T14:27:27.736Z,26.90
2018-08-12T14:30:31.552Z,27.26
2018-08-12T14:33:35.188Z,27.25
2018-08-12T14:36:38.872Z,27.05
2018-08-12T14:39:42.704Z,27.14
2018-08-12T14:42:46.415Z,27.17
2018-08-12T14:45:50.185Z,27.56
2018-08-12T14:48:53.984Z,27.47
2018-08-12T14:51:57.636Z,27.07
2018-08-12T14:55:01.321Z,26.87
2018-08-12T14:58:04.979Z,27.04
2018-08-12T15:01:08.821Z,26.71
2018-08-12T15:04:12.495Z,26.77
2018-08-12T15:07:16.199Z,27.12
2018-08-12T15:10:19.962Z,27.42
2018-08-12T15:13:23.673Z,27.01
2018-08-12T15:16:27.533Z,27.05
2018-08-12T15:19:31.209Z,27.22
2018-08-12T15:22:35.264Z,27.41
2018-08-12T15:25:39.102Z,27.41
2018-08-12T15:28:42.834Z,27.52
2018-08-12T15:31:46.469Z,27.55
2018-08-12T15:34:50.342Z,27.90
2018-08-12T15:37:54.156Z,27.59
2018-08-12T15:40:57.945Z,27.64
2018-08-12T15:44:01.743Z,27.51
2018-08-12T15:47:05.493Z,27.91
2018-08-12T15:50:10.214Z,27.81
2018-08-12T15:53:13.942Z,27.83
2018-08-12T15:56:17.833Z,27.31
2018-08-12T15:59:21.921Z,27.44
2018-08-12T16:02:25.582Z,27.22
2018-08-12T16:05:29.327Z,27.14
2018-08-12T16:08:33.191Z,27.04
2018-08-12T16:11:36.865Z,27.28
2018-08-12T16:14:40.536Z,27.07
2018-08-12T16:17:44.307Z,27.53
2018-08-12T16:20:48.077Z,27.21
2018-08-12T16:23:51.976Z,27.44
2018-08-12T16:26:55.773Z,27.00
2018-08-12T16:29:59.647Z,27.04
2018-08-12T16:33:03.418Z,26.92
2018-08-12T16:36:07.221Z,26.81
2018-08-12T16:39:13.027Z,26.93
2018-08-12T16:42:16.947Z,26.89
2018-08-12T16:45:21.051Z,26.92
2018-08-12T16:48:24.789Z,26.61
2018-08-12T16:51:28.627Z,26.48
2018-08-12T16:54:32.703Z,26.58
2018-08-12T16:57:36.521Z,26.34
2018-08-12T17:00:40.277Z,26.28
2018-08-12T17:03:44.022Z,26.16
2018-08-12T17:06:47.825Z,25.96
2018-08-12T17:09:51.452Z,26.16
2018-08-12T17:12:55.333Z,25.84
2018-08-12T17:15:59.024Z,26.03
2018-08-12T17:19:02.699Z,26.03
2018-08-12T17:22:06.535Z,26.06
2018-08-12T17:25:10.412Z,25.84
2018-08-12T17:28:14.131Z,25.95
2018-08-12T17:31:17.914Z,25.72
2018-08-12T17:34:21.895Z,25.73
2018-08-12T17:37:25.583Z,25.53
2018-08-12T17:40:29.403Z,25.34
2018-08-12T17:43:33.134Z,25.19
2018-08-12T17:46:36.930Z,25.08
2018-08-12T17:49:40.749Z,24.80
2018-08-12T17:52:44.478Z,24.56
2018-08-12T17:55:48.185Z,24.44
2018-08-12T17:58:51.914Z,24.33
2018-08-12T18:01:55.963Z,24.31
2018-08-12T18:04:59.677Z,24.20
2018-08-12T18:08:03.377Z,24.09
2018-08-12T18:11:07.210Z,23.81
2018-08-12T18:14:10.865Z,23.62
2018-08-12T18:17:14.648Z,23.43
2018-08-12T18:20:18.353Z,23.28
2018-08-12T18:23:22.361Z,23.11
2018-08-12T18:26:26.099Z,22.88
2018-08-12T18:29:29.864Z,22.79
2018-08-12T18:32:33.823Z,22.69
2018-08-12T18:35:37.718Z,22.62
2018-08-12T18:38:41.519Z,22.44
2018-08-12T18:41:45.311Z,22.28
2018-08-12T18:44:49.105Z,22.16
2018-08-12T18:47:52.849Z,22.05
2018-08-12T18:50:56.874Z,22.01
2018-08-12T18:54:00.768Z,21.91
2018-08-12T18:57:04.534Z,21.83
2018-08-12T19:00:10.224Z,21.77
2018-08-12T19:03:13.911Z,21.66
2018-08-12T19:06:17.611Z,21.62
2018-08-12T19:09:21.279Z,21.53
2018-08-12T19:12:24.947Z,21.46
2018-08-12T19:15:28.699Z,21.44
2018-08-12T19:18:32.861Z,21.37
2018-08-12T19:21:36.937Z,21.36
2018-08-12T19:24:40.750Z,21.30
2018-08-12T19:27:44.530Z,21.31
2018-08-12T19:30:48.329Z,21.28
2018-08-12T19:33:52.253Z,21.31
2018-08-12T19:36:55.969Z,21.30
2018-08-12T19:39:59.769Z,21.27
2018-08-12T19:43:03.779Z,21.32
2018-08-12T19:46:07.625Z,21.27
2018-08-12T19:49:11.412Z,21.23
2018-08-12T19:52:15.164Z,21.25
2018-08-12T19:55:19.153Z,21.25
2018-08-12T19:58:22.941Z,21.32
2018-08-12T20:01:26.666Z,21.33
2018-08-12T20:04:30.583Z,21.31
2018-08-12T20:07:34.333Z,21.29
2018-08-12T20:10:37.995Z,21.25
2018-08-12T20:13:41.780Z,21.29
2018-08-12T20:16:45.470Z,21.24
2018-08-12T20:19:49.227Z,21.25
2018-08-12T20:22:53.083Z,21.30
2018-08-12T20:25:57.052Z,21.27
2018-08-12T20:29:00.785Z,21.24
2018-08-12T20:32:04.599Z,21.22
2018-08-12T20:35:08.509Z,21.23
2018-08-12T20:38:12.227Z,21.23
2018-08-12T20:41:15.975Z,21.15
2018-08-12T20:44:19.726Z,21.14
2018-08-12T20:47:23.370Z,21.13
2018-08-12T20:50:27.219Z,21.13
2018-08-12T20:53:30.943Z,21.25
2018-08-12T20:56:34.636Z,21.23
2018-08-12T20:59:38.445Z,21.20
2018-08-12T21:02:42.770Z,21.18
2018-08-12T21:05:46.559Z,21.21
2018-08-12T21:08:50.354Z,21.20
2018-08-12T21:11:54.197Z,21.16
2018-08-12T21:14:57.926Z,21.18
2018-08-12T21:18:01.649Z,21.16
2018-08-12T21:21:05.507Z,21.22
2018-08-12T21:24:09.355Z,21.13
2018-08-12T21:27:13.139Z,21.09
2018-08-12T21:30:16.991Z,21.07
2018-08-12T21:33:20.996Z,21.09
2018-08-12T21:36:24.626Z,21.02
2018-08-12T21:39:28.354Z,20.98
2018-08-12T21:42:32.877Z,20.96
2018-08-12T21:45:36.537Z,20.95
2018-08-12T21:48:40.234Z,21.01
2018-08-12T21:51:43.937Z,21.11
2018-08-12T21:54:47.800Z,21.03
2018-08-12T21:57:51.436Z,21.02
2018-08-12T22:00:55.699Z,20.88
2018-08-12T22:03:59.391Z,20.91
2018-08-12T22:07:03.127Z,20.85
2018-08-12T22:10:07.461Z,20.74
2018-08-12T22:13:11.334Z,20.72
2018-08-12T22:16:15.140Z,20.64
2018-08-12T22:19:18.936Z,20.60
2018-08-12T22:22:22.749Z,20.54
2018-08-12T22:25:26.597Z,20.51
2018-08-12T22:28:30.277Z,20.46
2018-08-12T22:31:34.077Z,20.41
2018-08-12T22:34:37.786Z,20.44
2018-08-12T22:37:41.440Z,20.35
2018-08-12T22:40:45.180Z,20.39
2018-08-12T22:43:48.924Z,20.35
2018-08-12T22:46:52.566Z,20.35
2018-08-12T22:49:56.213Z,20.21
2018-08-12T22:52:59.785Z,20.30
2018-08-12T22:56:03.521Z,20.33
2018-08-12T22:59:07.287Z,20.16
2018-08-12T23:02:11.082Z,20.07
2018-08-12T23:05:14.915Z,20.02
2018-08-12T23:08:18.602Z,20.01
2018-08-12T23:11:22.246Z,20.04
2018-08-12T23:14:25.914Z,19.97
2018-08-12T23:17:32.205Z,20.05
2018-08-12T23:20:35.825Z,20.01
2018-08-12T23:23:40.541Z,19.95
2018-08-12T23:26:44.240Z,19.90
2018-08-12T23:29:47.912Z,19.97
2018-08-12T23:32:51.567Z,20.01
2018-08-12T23:35:55.257Z,20.03
2018-08-12T23:38:58.893Z,19.98
2018-08-12T23:42:02.558Z,20.10
2018-08-12T23:45:06.221Z,20.00
2018-08-12T23:48:09.863Z,19.99
2018-08-12T23:51:13.700Z,19.96
2018-08-12T23:54:17.344Z,19.94
2018-08-12T23:57:20.981Z,19.92
